RJTS(METAR)
02/28 07:00
METAR RJTS 272200Z 22002KT 9999 FEW015 BKN020 01/M05 Q1024 RMK
1SC015 7SC020 A3025=
戻る
トップページへ戻る
IMOC Co,.Ltd.